< < Back
Terminal Aerodrome Forecast


Current Version              Previous Versions:   1  2  3  4  5  6  7  8  9  

Terminal Aerodrome Forecast

543
FTUS42 KGSP 012300
TAFAND
TAF
KAND 012328Z 0200/0224 00000KT P6SM SCT060
     FM020800 00000KT 5SM BR FEW060
     FM021300 19006KT P6SM FEW060=

Latest METAR

488
SAUS70 KWBC 021600 RRE
MTRAND
METAR KAND 021556Z AUTO 27005KT 10SM CLR 27/17 A3013 RMK AO2 SLP193
T02720172


USA.gov is the U.S. government's official web portal to all federal, state and local government web resources and services.